Time;durP1;ratioP1;P1;durP2;ratioP2;P2;SDS_P1;SDS_P2;PMS_P1;PMS_P2;Temp;Humidity;BMP_temperature;BMP_pressure;BME280_temperature;BME280_humidity;BME280_pressure;Samples;Min_cycle;Max_cycle;Signal;HPM_P1;HPM_P2
2021/12/28 00:01:08;;;;;;;;;;;5.30;99.90;;;;;;5010802;28;20017;-38
2021/12/28 00:03:35;;;;;;;;;;;5.30;99.90;;;;;;5011176;28;19925;-37
2021/12/28 00:06:02;;;;;;;;;;;5.40;99.90;;;;;;5009481;28;19991;-40
2021/12/28 00:08:29;;;;;;;;;;;5.40;99.90;;;;;;5010241;28;19930;-37
2021/12/28 00:10:56;;;;;;;;;;;5.50;99.90;;;;;;5009751;28;19949;-38
2021/12/28 00:13:23;;;;;;;;;;;5.50;99.90;;;;;;5010147;28;19933;-37
2021/12/28 00:16:02;;;;;;;;;;;5.50;99.90;;;;;;5011779;28;20432;-38
2021/12/28 00:18:28;;;;;;;;;;;5.50;99.90;;;;;;5011752;28;19980;-37
2021/12/28 00:20:55;;;;;;;;;;;5.50;99.90;;;;;;5011137;28;19926;-38
2021/12/28 00:23:24;;;;;;;;;;;5.50;99.90;;;;;;5010506;28;20452;-39
2021/12/28 00:25:51;;;;;;;;;;;5.50;99.90;;;;;;5012940;28;19933;-37
2021/12/28 00:28:18;;;;;;;;;;;5.50;99.90;;;;;;5011630;28;19925;-38
2021/12/28 00:30:45;;;;;;;;;;;5.60;99.90;;;;;;5011963;28;19976;-38
2021/12/28 00:33:13;;;;;;;;;;;5.60;99.90;;;;;;5011758;28;19960;-37
2021/12/28 00:35:40;;;;;;;;;;;5.60;99.90;;;;;;5012553;28;20004;-38
2021/12/28 00:38:08;;;;;;;;;;;5.70;99.90;;;;;;5012312;28;20306;-38
2021/12/28 00:40:35;;;;;;;;;;;5.70;99.90;;;;;;5011616;28;19929;-38
2021/12/28 00:43:02;;;;;;;;;;;5.80;99.90;;;;;;5012884;28;19925;-37
2021/12/28 00:45:29;;;;;;;;;;;5.70;99.90;;;;;;5011337;28;19973;-41
2021/12/28 00:47:56;;;;;;;;;;;5.90;99.90;;;;;;5010986;28;20024;-38
2021/12/28 00:50:24;;;;;;;;;;;5.90;99.90;;;;;;5010506;28;19925;-39
2021/12/28 00:52:50;;;;;;;;;;;6.10;99.90;;;;;;5010530;28;20032;-38
2021/12/28 00:55:18;;;;;;;;;;;6.10;99.90;;;;;;5036447;28;19948;-38
2021/12/28 00:57:45;;;;;;;;;;;6.10;99.90;;;;;;5010095;28;20373;-38
2021/12/28 01:00:12;;;;;;;;;;;6.10;99.90;;;;;;5012469;28;19926;-38
2021/12/28 01:02:39;;;;;;;;;;;6.20;99.90;;;;;;5005300;28;20012;-38
2021/12/28 01:05:06;;;;;;;;;;;6.30;99.90;;;;;;5008015;28;19936;-38
2021/12/28 01:07:35;;;;;;;;;;;6.20;99.90;;;;;;5011420;28;20294;-37
2021/12/28 01:10:02;;;;;;;;;;;6.30;99.90;;;;;;5004513;28;19933;-39
2021/12/28 01:12:28;;;;;;;;;;;6.30;99.90;;;;;;5001580;28;19953;-38
2021/12/28 01:14:55;;;;;;;;;;;6.30;99.90;;;;;;5042849;28;19926;-38
2021/12/28 01:17:23;;;;;;;;;;;6.20;99.90;;;;;;5012616;28;19932;-38
2021/12/28 01:19:49;;;;;;;;;;;6.30;99.90;;;;;;5042726;28;19931;-39
2021/12/28 01:22:16;;;;;;;;;;;6.30;99.90;;;;;;5010522;28;19934;-38
2021/12/28 01:24:44;;;;;;;;;;;6.30;99.90;;;;;;5040817;28;19979;-38
2021/12/28 01:27:11;;;;;;;;;;;6.30;99.90;;;;;;5012522;28;20020;-38
2021/12/28 01:29:38;;;;;;;;;;;6.30;99.90;;;;;;5011218;28;19925;-38
2021/12/28 01:32:07;;;;;;;;;;;6.20;99.90;;;;;;5012939;28;20016;-39
2021/12/28 01:34:34;;;;;;;;;;;6.30;99.90;;;;;;5015397;28;20407;-38
2021/12/28 01:37:01;;;;;;;;;;;6.20;99.90;;;;;;5015272;28;19979;-39
2021/12/28 01:39:28;;;;;;;;;;;6.20;99.90;;;;;;5012552;28;20393;-38
2021/12/28 01:41:56;;;;;;;;;;;6.20;99.90;;;;;;5014739;28;20464;-38
2021/12/28 01:44:23;;;;;;;;;;;6.30;99.90;;;;;;5015861;28;20020;-38
2021/12/28 01:46:50;;;;;;;;;;;6.20;99.90;;;;;;5015088;28;20370;-39
2021/12/28 01:49:17;;;;;;;;;;;6.30;99.90;;;;;;5014465;28;19926;-40
2021/12/28 01:51:43;;;;;;;;;;;6.30;99.90;;;;;;5015521;28;20012;-38
2021/12/28 01:54:10;;;;;;;;;;;6.30;99.90;;;;;;5013819;28;19976;-38
2021/12/28 01:56:38;;;;;;;;;;;6.30;99.90;;;;;;5014862;28;20012;-38
2021/12/28 01:59:07;;;;;;;;;;;6.40;99.90;;;;;;5015268;28;19932;-39
2021/12/28 02:01:34;;;;;;;;;;;6.30;99.90;;;;;;5015660;28;20348;-39
2021/12/28 02:04:01;;;;;;;;;;;6.40;99.90;;;;;;5013760;28;19930;-38
2021/12/28 02:06:28;;;;;;;;;;;6.30;99.90;;;;;;5012690;28;19925;-37
2021/12/28 02:08:55;;;;;;;;;;;6.30;99.90;;;;;;5013154;28;19926;-39
2021/12/28 02:11:22;;;;;;;;;;;6.40;99.90;;;;;;5015520;28;19932;-38
2021/12/28 02:13:49;;;;;;;;;;;6.40;99.90;;;;;;5013675;28;20389;-38
2021/12/28 02:16:17;;;;;;;;;;;6.40;99.90;;;;;;5010318;28;19929;-38
2021/12/28 02:18:44;;;;;;;;;;;6.40;99.90;;;;;;5015842;28;20008;-38
2021/12/28 02:21:12;;;;;;;;;;;6.40;99.90;;;;;;5015017;28;19972;-38
2021/12/28 02:23:39;;;;;;;;;;;6.40;99.90;;;;;;5014419;28;20400;-38
2021/12/28 02:26:06;;;;;;;;;;;6.50;99.90;;;;;;5014674;28;19929;-38
2021/12/28 02:28:33;;;;;;;;;;;6.50;99.90;;;;;;5015599;28;19968;-38
2021/12/28 02:31:00;;;;;;;;;;;6.50;99.90;;;;;;5014126;28;20292;-38
2021/12/28 02:33:27;;;;;;;;;;;6.50;99.90;;;;;;5046752;28;19976;-37
2021/12/28 02:35:54;;;;;;;;;;;6.50;99.90;;;;;;5007758;28;20402;-38
2021/12/28 02:38:22;;;;;;;;;;;6.50;99.90;;;;;;5014010;28;20370;-38
2021/12/28 02:40:49;;;;;;;;;;;6.60;99.90;;;;;;5013437;28;19964;-39
2021/12/28 02:43:16;;;;;;;;;;;6.60;99.90;;;;;;5013169;28;20027;-39
2021/12/28 02:45:47;;;;;;;;;;;6.60;99.90;;;;;;5012082;28;20013;-39
2021/12/28 02:48:14;;;;;;;;;;;6.60;99.90;;;;;;5012511;28;19933;-38
2021/12/28 02:50:43;;;;;;;;;;;6.60;99.90;;;;;;5013970;28;20355;-38
2021/12/28 02:53:10;;;;;;;;;;;6.70;99.90;;;;;;5016501;28;19947;-40
2021/12/28 02:55:39;;;;;;;;;;;6.70;99.90;;;;;;5016977;28;20005;-38
2021/12/28 02:58:07;;;;;;;;;;;6.70;99.90;;;;;;5049574;28;20019;-39
2021/12/28 03:00:35;;;;;;;;;;;6.70;99.90;;;;;;5032016;28;19971;-38
2021/12/28 03:03:05;;;;;;;;;;;6.80;99.90;;;;;;5049911;28;19932;-38
2021/12/28 03:05:32;;;;;;;;;;;6.80;99.90;;;;;;5026833;28;19968;-39
2021/12/28 03:07:59;;;;;;;;;;;6.80;99.90;;;;;;5033922;28;19926;-38
2021/12/28 03:10:26;;;;;;;;;;;6.80;99.90;;;;;;5027805;28;19976;-38
2021/12/28 03:12:54;;;;;;;;;;;6.80;99.90;;;;;;5015749;28;19931;-38
2021/12/28 03:15:22;;;;;;;;;;;6.90;99.90;;;;;;5033669;28;19977;-38
2021/12/28 03:17:48;;;;;;;;;;;6.90;99.90;;;;;;5016778;28;19932;-38
2021/12/28 03:20:15;;;;;;;;;;;6.90;99.90;;;;;;5049655;28;19979;-38
2021/12/28 03:22:42;;;;;;;;;;;6.90;99.90;;;;;;5016437;28;20016;-38
2021/12/28 03:25:09;;;;;;;;;;;7.00;99.90;;;;;;5016139;28;19972;-39
2021/12/28 03:27:36;;;;;;;;;;;7.00;99.90;;;;;;5016139;28;19929;-39
2021/12/28 03:30:06;;;;;;;;;;;7.00;99.90;;;;;;5014602;28;19925;-38
2021/12/28 03:32:32;;;;;;;;;;;7.00;99.90;;;;;;5032900;28;19925;-39
2021/12/28 03:34:59;;;;;;;;;;;7.00;99.90;;;;;;5016120;28;19987;-39
2021/12/28 03:37:26;;;;;;;;;;;7.10;99.90;;;;;;5031659;28;19998;-38
2021/12/28 03:39:53;;;;;;;;;;;7.10;99.90;;;;;;5033079;28;19968;-39
2021/12/28 03:42:20;;;;;;;;;;;7.10;99.90;;;;;;5032620;28;19929;-38
2021/12/28 03:44:47;;;;;;;;;;;7.10;99.90;;;;;;5016002;28;19925;-38
2021/12/28 03:47:15;;;;;;;;;;;7.10;99.90;;;;;;5033481;28;19925;-38
2021/12/28 03:49:42;;;;;;;;;;;7.10;99.90;;;;;;5015980;28;19972;-39
2021/12/28 03:52:08;;;;;;;;;;;7.10;99.90;;;;;;5033422;28;19925;-38
2021/12/28 03:54:35;;;;;;;;;;;7.10;99.90;;;;;;5014566;28;20031;-41
2021/12/28 03:57:02;;;;;;;;;;;7.10;99.90;;;;;;5013523;28;19964;-38
2021/12/28 03:59:29;;;;;;;;;;;7.20;99.90;;;;;;5015516;28;19986;-38
2021/12/28 04:01:56;;;;;;;;;;;7.20;99.90;;;;;;5033097;28;19979;-38
2021/12/28 04:04:24;;;;;;;;;;;7.10;99.90;;;;;;5032925;28;20003;-39
2021/12/28 04:06:51;;;;;;;;;;;7.10;99.90;;;;;;5032545;28;20364;-40
2021/12/28 04:09:23;;;;;;;;;;;7.10;99.90;;;;;;5033094;28;20020;-38
2021/12/28 04:11:50;;;;;;;;;;;7.10;99.90;;;;;;5027121;28;20297;-38
2021/12/28 04:14:17;;;;;;;;;;;7.00;99.90;;;;;;5015520;28;19976;-38
2021/12/28 04:16:44;;;;;;;;;;;7.00;99.90;;;;;;5015075;28;20004;-39
2021/12/28 04:19:11;;;;;;;;;;;6.90;99.90;;;;;;5015040;28;20343;-39
2021/12/28 04:21:39;;;;;;;;;;;6.90;99.90;;;;;;5015482;28;19968;-38
2021/12/28 04:24:06;;;;;;;;;;;6.90;99.90;;;;;;5014008;28;20417;-38
2021/12/28 04:26:33;;;;;;;;;;;6.90;99.90;;;;;;5011713;28;19972;-41
2021/12/28 04:29:00;;;;;;;;;;;6.90;99.90;;;;;;5032998;28;19995;-39
2021/12/28 04:31:27;;;;;;;;;;;6.90;99.90;;;;;;5015443;28;19929;-39
2021/12/28 04:33:54;;;;;;;;;;;6.90;99.90;;;;;;5048349;28;20370;-38
2021/12/28 04:36:21;;;;;;;;;;;6.90;99.90;;;;;;5027453;28;20368;-39
2021/12/28 04:38:49;;;;;;;;;;;6.90;99.90;;;;;;5025691;28;19940;-38
2021/12/28 04:41:15;;;;;;;;;;;6.80;99.90;;;;;;5011921;28;19929;-39
2021/12/28 04:43:43;;;;;;;;;;;6.90;99.90;;;;;;5030060;28;19981;-39
2021/12/28 04:46:09;;;;;;;;;;;6.80;99.90;;;;;;5015178;28;19931;-39
2021/12/28 04:48:36;;;;;;;;;;;6.80;99.90;;;;;;5046458;28;20016;-40
2021/12/28 04:51:03;;;;;;;;;;;6.80;99.90;;;;;;5010903;28;19924;-39
2021/12/28 04:53:30;;;;;;;;;;;6.80;99.90;;;;;;5027184;28;20139;-39
2021/12/28 04:55:58;;;;;;;;;;;6.70;99.90;;;;;;5031742;28;20301;-38
2021/12/28 04:58:25;;;;;;;;;;;6.70;99.90;;;;;;5014587;28;19929;-38
2021/12/28 05:00:52;;;;;;;;;;;6.70;99.90;;;;;;5011048;28;20032;-38
2021/12/28 05:03:19;;;;;;;;;;;6.60;99.90;;;;;;5031278;28;19972;-39
2021/12/28 05:05:48;;;;;;;;;;;6.60;99.90;;;;;;5013912;28;20021;-39
2021/12/28 05:08:15;;;;;;;;;;;6.50;99.90;;;;;;5047789;28;20424;-39
2021/12/28 05:10:42;;;;;;;;;;;6.50;99.90;;;;;;5031236;28;20361;-39
2021/12/28 05:13:10;;;;;;;;;;;6.50;99.90;;;;;;5014669;28;19925;-39
2021/12/28 05:15:37;;;;;;;;;;;6.50;99.90;;;;;;5014465;28;19961;-39
2021/12/28 05:18:04;;;;;;;;;;;6.50;99.90;;;;;;5014210;28;20455;-38
2021/12/28 05:20:31;;;;;;;;;;;6.50;99.90;;;;;;5027368;28;19926;-38
2021/12/28 05:22:57;;;;;;;;;;;6.40;99.90;;;;;;5030963;28;20016;-39
2021/12/28 05:25:24;;;;;;;;;;;6.40;99.90;;;;;;5014469;28;19933;-39
2021/12/28 05:27:51;;;;;;;;;;;6.40;99.90;;;;;;5026201;28;20004;-39
2021/12/28 05:30:19;;;;;;;;;;;6.40;99.90;;;;;;5012135;28;19925;-38
2021/12/28 05:32:46;;;;;;;;;;;6.40;99.90;;;;;;5030124;28;19999;-40
2021/12/28 05:35:13;;;;;;;;;;;6.40;99.90;;;;;;5019714;28;20340;-39
2021/12/28 05:37:40;;;;;;;;;;;6.30;99.90;;;;;;5012784;28;19975;-39
2021/12/28 05:40:07;;;;;;;;;;;6.30;99.90;;;;;;5010584;28;19976;-39
2021/12/28 05:42:34;;;;;;;;;;;6.30;99.90;;;;;;5010734;28;19977;-39
2021/12/28 05:45:01;;;;;;;;;;;6.30;99.90;;;;;;5029158;28;19925;-39
2021/12/28 05:47:29;;;;;;;;;;;6.30;99.90;;;;;;5014508;28;19929;-38
2021/12/28 05:49:56;;;;;;;;;;;6.30;99.90;;;;;;5045445;28;20315;-38
2021/12/28 05:52:23;;;;;;;;;;;6.30;99.90;;;;;;5011480;28;19925;-39
2021/12/28 05:54:50;;;;;;;;;;;6.20;99.90;;;;;;5028516;28;19980;-39
2021/12/28 05:57:17;;;;;;;;;;;6.30;99.90;;;;;;5014287;28;20393;-39
2021/12/28 05:59:44;;;;;;;;;;;6.20;99.90;;;;;;5031590;28;19932;-38
2021/12/28 06:02:11;;;;;;;;;;;6.20;99.90;;;;;;5029698;28;19929;-38
2021/12/28 06:04:39;;;;;;;;;;;6.20;99.90;;;;;;5030015;28;19933;-38
2021/12/28 06:07:06;;;;;;;;;;;6.20;99.90;;;;;;5044810;28;19972;-39
2021/12/28 06:09:33;;;;;;;;;;;6.10;99.90;;;;;;5030595;28;19925;-38
2021/12/28 06:12:00;;;;;;;;;;;6.10;99.90;;;;;;5014097;28;19972;-38
2021/12/28 06:14:27;;;;;;;;;;;6.10;99.90;;;;;;5014200;28;19932;-38
2021/12/28 06:16:54;;;;;;;;;;;6.00;99.90;;;;;;5014254;28;19948;-39
2021/12/28 06:19:21;;;;;;;;;;;6.00;99.90;;;;;;5049213;28;20377;-38
2021/12/28 06:21:49;;;;;;;;;;;6.00;99.90;;;;;;5034795;28;19936;-38
2021/12/28 06:24:16;;;;;;;;;;;6.00;99.90;;;;;;5026671;28;19925;-39
2021/12/28 06:26:43;;;;;;;;;;;6.00;99.90;;;;;;5017192;28;19932;-38
2021/12/28 06:29:11;;;;;;;;;;;6.00;99.90;;;;;;5017671;28;20022;-38
2021/12/28 06:31:38;;;;;;;;;;;5.90;99.90;;;;;;5034544;28;20420;-38
2021/12/28 06:34:07;;;;;;;;;;;5.90;99.90;;;;;;5034598;28;20054;-38
2021/12/28 06:36:33;;;;;;;;;;;6.00;99.90;;;;;;5016987;28;19925;-39
2021/12/28 06:39:02;;;;;;;;;;;5.90;99.90;;;;;;5050445;28;20011;-38
2021/12/28 06:41:29;;;;;;;;;;;5.90;99.90;;;;;;5034273;28;20447;-38
2021/12/28 06:43:55;;;;;;;;;;;5.90;99.90;;;;;;5034858;28;19991;-38
2021/12/28 06:46:25;;;;;;;;;;;5.90;99.90;;;;;;5034725;28;19979;-39
2021/12/28 06:48:52;;;;;;;;;;;6.00;99.90;;;;;;5016863;28;20373;-38
2021/12/28 06:51:19;;;;;;;;;;;5.90;99.90;;;;;;5016635;28;19972;-38
2021/12/28 06:53:47;;;;;;;;;;;5.90;99.90;;;;;;5015287;28;19925;-39
2021/12/28 06:56:15;;;;;;;;;;;5.90;99.90;;;;;;5031169;28;20301;-38
2021/12/28 06:58:42;;;;;;;;;;;6.00;99.90;;;;;;5016954;28;19971;-38
2021/12/28 07:01:09;;;;;;;;;;;6.00;99.90;;;;;;5025885;28;19935;-39
2021/12/28 07:03:35;;;;;;;;;;;6.00;99.90;;;;;;5023282;28;20355;-40
2021/12/28 07:06:06;;;;;;;;;;;6.00;99.90;;;;;;5030213;28;19971;-38
2021/12/28 07:08:33;;;;;;;;;;;6.10;99.90;;;;;;5016128;28;19929;-39
2021/12/28 07:11:00;;;;;;;;;;;6.10;99.90;;;;;;5031911;28;20051;-38
2021/12/28 07:13:28;;;;;;;;;;;6.10;99.90;;;;;;5034064;28;19925;-39
2021/12/28 07:15:55;;;;;;;;;;;6.10;99.90;;;;;;5030460;28;19935;-38
2021/12/28 07:18:22;;;;;;;;;;;6.10;99.90;;;;;;5030401;28;19925;-38
2021/12/28 07:20:49;;;;;;;;;;;6.20;99.90;;;;;;5012221;28;20469;-38
2021/12/28 07:23:16;;;;;;;;;;;6.20;99.90;;;;;;5041554;28;19936;-40
2021/12/28 07:25:43;;;;;;;;;;;6.10;99.90;;;;;;5009075;28;20380;-39
2021/12/28 07:28:10;;;;;;;;;;;6.20;99.90;;;;;;5030818;28;19929;-38
2021/12/28 07:30:38;;;;;;;;;;;6.20;99.90;;;;;;5027710;28;19972;-38
2021/12/28 07:33:05;;;;;;;;;;;6.10;99.90;;;;;;5030994;28;19948;-40
2021/12/28 07:35:31;;;;;;;;;;;6.20;99.90;;;;;;5026191;28;19925;-37
2021/12/28 07:37:58;;;;;;;;;;;6.10;99.90;;;;;;5015073;28;20015;-38
2021/12/28 07:40:25;;;;;;;;;;;6.20;99.90;;;;;;5029909;28;19929;-38
2021/12/28 07:42:52;;;;;;;;;;;6.10;99.90;;;;;;5030212;28;20461;-39
2021/12/28 07:45:19;;;;;;;;;;;6.20;99.90;;;;;;5029054;28;19983;-39
2021/12/28 07:47:47;;;;;;;;;;;6.10;99.90;;;;;;5014847;28;19930;-38
2021/12/28 07:50:15;;;;;;;;;;;6.10;99.90;;;;;;5014588;28;20429;-39
2021/12/28 07:52:42;;;;;;;;;;;6.10;99.90;;;;;;5031532;28;19925;-38
2021/12/28 07:55:09;;;;;;;;;;;6.10;99.90;;;;;;5013571;28;19925;-38
2021/12/28 07:57:36;;;;;;;;;;;6.20;99.90;;;;;;5014767;28;19971;-39
2021/12/28 08:00:03;;;;;;;;;;;6.20;99.90;;;;;;5031663;28;20017;-37
2021/12/28 08:02:30;;;;;;;;;;;6.20;99.90;;;;;;5046948;28;19999;-38
2021/12/28 08:04:58;;;;;;;;;;;6.20;99.90;;;;;;5014298;28;19925;-37
2021/12/28 08:07:25;;;;;;;;;;;6.30;99.90;;;;;;5032948;28;20004;-39
2021/12/28 08:09:52;;;;;;;;;;;6.20;99.90;;;;;;5015010;28;20391;-38
2021/12/28 08:12:19;;;;;;;;;;;6.30;99.90;;;;;;5015737;28;19987;-39
2021/12/28 08:14:46;;;;;;;;;;;6.30;99.90;;;;;;5031963;28;20011;-38
2021/12/28 08:17:12;;;;;;;;;;;6.30;99.90;;;;;;5032126;28;19925;-38
2021/12/28 08:19:39;;;;;;;;;;;6.30;99.90;;;;;;5032052;28;20316;-38
2021/12/28 08:22:07;;;;;;;;;;;6.30;99.90;;;;;;5032536;28;20306;-39
2021/12/28 08:24:34;;;;;;;;;;;6.30;99.90;;;;;;5031536;28;19929;-41
2021/12/28 08:27:01;;;;;;;;;;;6.30;99.90;;;;;;5027425;28;20408;-38
2021/12/28 08:29:28;;;;;;;;;;;6.30;99.90;;;;;;5015067;28;20341;-38
2021/12/28 08:31:54;;;;;;;;;;;6.40;99.90;;;;;;5031802;28;19956;-39
2021/12/28 08:34:21;;;;;;;;;;;6.40;99.90;;;;;;5028031;28;19929;-39
2021/12/28 08:36:48;;;;;;;;;;;6.40;99.90;;;;;;5032179;28;19931;-38
2021/12/28 08:39:16;;;;;;;;;;;6.40;99.90;;;;;;5013271;28;19935;-38
2021/12/28 08:41:43;;;;;;;;;;;6.30;99.90;;;;;;5031539;28;19925;-39
2021/12/28 08:44:10;;;;;;;;;;;6.40;99.90;;;;;;5031465;28;20449;-38
2021/12/28 08:46:37;;;;;;;;;;;6.50;99.90;;;;;;5014556;28;19971;-38
2021/12/28 08:49:04;;;;;;;;;;;6.40;99.90;;;;;;5014249;28;19932;-40
2021/12/28 08:51:31;;;;;;;;;;;6.40;99.90;;;;;;5014678;28;20420;-38
2021/12/28 08:53:58;;;;;;;;;;;6.40;99.90;;;;;;5030525;28;20316;-38
2021/12/28 08:56:26;;;;;;;;;;;6.40;99.90;;;;;;5031346;28;19979;-39
2021/12/28 08:58:53;;;;;;;;;;;6.30;99.90;;;;;;5031742;28;19926;-38
2021/12/28 09:01:20;;;;;;;;;;;6.40;99.90;;;;;;5012048;28;19950;-40
2021/12/28 09:03:46;;;;;;;;;;;6.30;99.90;;;;;;5030738;28;20008;-41
2021/12/28 09:06:13;;;;;;;;;;;6.30;99.90;;;;;;5027542;28;19933;-38
2021/12/28 09:08:40;;;;;;;;;;;6.30;99.90;;;;;;5026671;28;20304;-38
2021/12/28 09:11:07;;;;;;;;;;;6.40;99.90;;;;;;5046592;28;19972;-39
2021/12/28 09:13:36;;;;;;;;;;;6.40;99.90;;;;;;5011155;28;19928;-39
2021/12/28 09:16:03;;;;;;;;;;;6.40;99.90;;;;;;5022245;28;19933;-38
2021/12/28 09:18:30;;;;;;;;;;;6.40;99.90;;;;;;5009866;28;19928;-39
2021/12/28 09:20:57;;;;;;;;;;;6.40;99.90;;;;;;5031405;28;19925;-38
2021/12/28 09:23:24;;;;;;;;;;;6.50;99.90;;;;;;5032869;28;19925;-39
2021/12/28 09:25:51;;;;;;;;;;;6.50;99.90;;;;;;5033804;28;19971;-38
2021/12/28 09:28:18;;;;;;;;;;;6.60;99.90;;;;;;5030017;28;19937;-38
2021/12/28 09:30:46;;;;;;;;;;;6.60;99.90;;;;;;5032484;28;19932;-39
2021/12/28 09:33:13;;;;;;;;;;;6.70;99.90;;;;;;5027829;28;19935;-38
2021/12/28 09:35:39;;;;;;;;;;;6.70;99.90;;;;;;5014097;28;19925;-39
2021/12/28 09:38:06;;;;;;;;;;;6.70;99.90;;;;;;5013943;28;19929;-39
2021/12/28 09:40:34;;;;;;;;;;;6.90;99.90;;;;;;5030724;28;19929;-39
2021/12/28 09:43:01;;;;;;;;;;;6.90;99.90;;;;;;5013749;28;19953;-39
2021/12/28 09:45:28;;;;;;;;;;;7.00;99.90;;;;;;5045071;28;20452;-39
2021/12/28 09:47:57;;;;;;;;;;;7.00;99.90;;;;;;5027366;28;19933;-38
2021/12/28 09:50:24;;;;;;;;;;;7.10;99.90;;;;;;5030021;28;19932;-39
2021/12/28 09:52:51;;;;;;;;;;;7.10;99.90;;;;;;5014033;28;19969;-39
2021/12/28 09:55:18;;;;;;;;;;;7.20;99.90;;;;;;5032310;28;19925;-39
2021/12/28 09:57:45;;;;;;;;;;;7.20;99.90;;;;;;5015372;28;19952;-39
2021/12/28 10:00:13;;;;;;;;;;;7.20;99.90;;;;;;5049893;28;20346;-39
2021/12/28 10:02:39;;;;;;;;;;;7.30;99.90;;;;;;5018001;28;20007;-38
2021/12/28 10:05:08;;;;;;;;;;;7.30;99.90;;;;;;5034720;28;19972;-39
2021/12/28 10:07:36;;;;;;;;;;;7.30;99.90;;;;;;5031528;28;20032;-39
2021/12/28 10:10:04;;;;;;;;;;;7.40;99.90;;;;;;5017423;28;19986;-39
2021/12/28 10:12:31;;;;;;;;;;;7.40;99.90;;;;;;5046332;28;19925;-38
2021/12/28 10:15:00;;;;;;;;;;;7.30;99.90;;;;;;5043296;28;19976;-38
2021/12/28 10:17:27;;;;;;;;;;;7.40;99.90;;;;;;5032170;28;20449;-38
2021/12/28 10:19:54;;;;;;;;;;;7.40;99.90;;;;;;5032194;28;20454;-38
2021/12/28 10:22:33;;;;;;;;;;;7.40;99.90;;;;;;5008264;28;19925;-38
2021/12/28 10:25:01;;;;;;;;;;;7.40;99.90;;;;;;5032630;28;19932;-38
2021/12/28 10:27:29;;;;;;;;;;;7.40;99.90;;;;;;5031937;28;19977;-38
2021/12/28 10:29:55;;;;;;;;;;;7.40;99.90;;;;;;5044795;28;19979;-38
2021/12/28 10:32:26;;;;;;;;;;;7.50;99.90;;;;;;5015877;28;19986;-39
2021/12/28 10:34:53;;;;;;;;;;;7.50;99.90;;;;;;5014892;28;19929;-40
2021/12/28 10:37:20;;;;;;;;;;;7.50;99.90;;;;;;5031587;28;20262;-39
2021/12/28 10:39:49;;;;;;;;;;;7.50;99.90;;;;;;5051154;28;20034;-39
2021/12/28 10:42:34;;;;;;;;;;;7.60;99.90;;;;;;5017783;28;20008;-39
2021/12/28 10:45:01;;;;;;;;;;;7.60;99.90;;;;;;5018425;28;19971;-39
2021/12/28 10:47:27;;;;;;;;;;;7.60;99.90;;;;;;5018604;28;19968;-38
2021/12/28 10:49:55;;;;;;;;;;;7.70;99.90;;;;;;5012410;28;20292;-38
2021/12/28 10:52:22;;;;;;;;;;;7.70;99.90;;;;;;5043606;28;19931;-39
2021/12/28 10:54:50;;;;;;;;;;;7.80;99.90;;;;;;5028149;28;19924;-39
2021/12/28 10:57:17;;;;;;;;;;;7.70;99.90;;;;;;5028502;28;19933;-38
2021/12/28 10:59:44;;;;;;;;;;;7.80;99.90;;;;;;5041328;28;19925;-38
2021/12/28 11:02:21;;;;;;;;;;;7.80;99.90;;;;;;5016159;28;20019;-37
2021/12/28 11:04:48;;;;;;;;;;;7.80;99.90;;;;;;5032704;28;20316;-38
2021/12/28 11:07:15;;;;;;;;;;;7.80;99.90;;;;;;5013200;28;19961;-38
2021/12/28 11:09:45;;;;;;;;;;;7.80;99.90;;;;;;5032615;28;19979;-38
2021/12/28 11:12:14;;;;;;;;;;;7.80;99.90;;;;;;5015175;28;19933;-38
2021/12/28 11:14:40;;;;;;;;;;;7.90;99.90;;;;;;5013495;28;19984;-37
2021/12/28 11:17:07;;;;;;;;;;;7.90;99.90;;;;;;5043647;28;19968;-36
2021/12/28 11:19:34;;;;;;;;;;;7.90;99.90;;;;;;5034743;28;19925;-38
2021/12/28 11:22:01;;;;;;;;;;;7.90;99.90;;;;;;5034421;28;19925;-38
2021/12/28 11:24:29;;;;;;;;;;;7.90;99.90;;;;;;5046136;28;20008;-37
2021/12/28 11:26:56;;;;;;;;;;;7.90;99.90;;;;;;5011836;28;20353;-37
2021/12/28 11:29:24;;;;;;;;;;;7.90;99.90;;;;;;5027498;28;20444;-38
2021/12/28 11:31:52;;;;;;;;;;;7.90;99.90;;;;;;5031750;28;19933;-38
2021/12/28 11:34:19;;;;;;;;;;;7.90;99.90;;;;;;5023028;28;19929;-37
2021/12/28 11:36:47;;;;;;;;;;;7.90;99.90;;;;;;5010914;28;19937;-38
2021/12/28 11:39:14;;;;;;;;;;;7.90;99.90;;;;;;5028140;28;19976;-40
2021/12/28 11:41:41;;;;;;;;;;;8.00;99.90;;;;;;5012636;28;20005;-37
2021/12/28 11:44:08;;;;;;;;;;;7.90;99.90;;;;;;5042309;28;20366;-37
2021/12/28 11:46:36;;;;;;;;;;;8.00;99.90;;;;;;5029346;28;19925;-37
2021/12/28 11:49:04;;;;;;;;;;;8.00;99.90;;;;;;5017229;28;19939;-38
2021/12/28 11:51:31;;;;;;;;;;;8.00;99.90;;;;;;5030242;28;20018;-37
2021/12/28 11:54:00;;;;;;;;;;;8.00;99.90;;;;;;5015208;28;20359;-37
2021/12/28 11:56:28;;;;;;;;;;;8.00;99.90;;;;;;5029939;28;19939;-38
2021/12/28 11:59:13;;;;;;;;;;;8.00;99.90;;;;;;5032086;28;20292;-37
2021/12/28 12:01:42;;;;;;;;;;;8.00;99.90;;;;;;5025839;28;20366;-39
2021/12/28 12:04:27;;;;;;;;;;;8.00;99.90;;;;;;5026404;28;20026;-39
2021/12/28 12:06:57;;;;;;;;;;;8.00;99.90;;;;;;5023068;28;19932;-38
2021/12/28 12:09:24;;;;;;;;;;;8.00;99.90;;;;;;5026441;28;20297;-38
2021/12/28 12:12:06;;;;;;;;;;;8.00;99.90;;;;;;5026096;28;20369;-39
2021/12/28 12:14:48;;;;;;;;;;;8.00;99.90;;;;;;5037718;28;19976;-38
2021/12/28 12:17:45;;;;;;;;;;;8.10;99.90;;;;;;5028801;28;20389;-39
2021/12/28 12:20:23;;;;;;;;;;;8.10;99.90;;;;;;4960053;28;20438;-39
2021/12/28 12:22:51;;;;;;;;;;;8.20;99.90;;;;;;5006461;28;19944;-38
2021/12/28 12:25:18;;;;;;;;;;;8.10;99.90;;;;;;5028007;28;20359;-38
2021/12/28 12:27:47;;;;;;;;;;;8.10;99.90;;;;;;5010931;28;20413;-40
2021/12/28 12:30:33;;;;;;;;;;;8.10;99.90;;;;;;5039610;28;19979;-37
2021/12/28 12:33:04;;;;;;;;;;;8.10;99.90;;;;;;5013898;28;19925;-38
2021/12/28 12:35:33;;;;;;;;;;;8.20;99.90;;;;;;5040746;28;20658;-39
2021/12/28 12:38:00;;;;;;;;;;;8.20;99.90;;;;;;5032128;28;20444;-38
2021/12/28 12:40:42;;;;;;;;;;;8.20;99.90;;;;;;5009818;28;21587;-38
2021/12/28 12:43:09;;;;;;;;;;;8.20;99.90;;;;;;5032533;28;19933;-39
2021/12/28 12:45:55;;;;;;;;;;;8.20;99.90;;;;;;5024120;28;19984;-39
2021/12/28 12:48:40;;;;;;;;;;;8.30;99.90;;;;;;5006549;28;19940;-39
2021/12/28 12:51:34;;;;;;;;;;;8.30;99.90;;;;;;5001780;28;19925;-39
2021/12/28 12:54:13;;;;;;;;;;;8.30;99.90;;;;;;4987411;28;19995;-39
2021/12/28 12:56:40;;;;;;;;;;;8.30;99.90;;;;;;5028695;28;19929;-39
2021/12/28 12:59:07;;;;;;;;;;;8.30;99.90;;;;;;5042620;28;19992;-38
2021/12/28 13:01:49;;;;;;;;;;;8.30;99.90;;;;;;5046481;28;20339;-41
2021/12/28 13:04:30;;;;;;;;;;;8.40;99.90;;;;;;5027152;28;19980;-38
2021/12/28 13:07:00;;;;;;;;;;;8.40;99.90;;;;;;5013788;28;19925;-39
2021/12/28 13:09:28;;;;;;;;;;;8.40;99.90;;;;;;5026340;28;19933;-39
2021/12/28 13:11:57;;;;;;;;;;;8.50;99.90;;;;;;5026821;28;19932;-39
2021/12/28 13:14:24;;;;;;;;;;;8.40;99.90;;;;;;5010673;28;19987;-38
2021/12/28 13:16:55;;;;;;;;;;;8.40;99.90;;;;;;5026861;28;20390;-38
2021/12/28 13:19:22;;;;;;;;;;;8.40;99.90;;;;;;5028762;28;19932;-38
2021/12/28 13:21:54;;;;;;;;;;;8.40;99.90;;;;;;5044804;28;19929;-38
2021/12/28 13:24:21;;;;;;;;;;;8.50;99.90;;;;;;5008822;28;20031;-38
2021/12/28 13:26:50;;;;;;;;;;;8.50;99.90;;;;;;5010342;28;19959;-39
2021/12/28 13:29:22;;;;;;;;;;;8.50;99.90;;;;;;5034233;28;20432;-38
2021/12/28 13:31:49;;;;;;;;;;;8.50;99.90;;;;;;5033119;28;19932;-38
2021/12/28 13:34:16;;;;;;;;;;;8.50;99.90;;;;;;5031280;28;20011;-38
2021/12/28 13:36:48;;;;;;;;;;;8.60;99.90;;;;;;5042774;28;19976;-39
2021/12/28 13:39:17;;;;;;;;;;;8.60;99.90;;;;;;5047860;28;20012;-40
2021/12/28 13:41:48;;;;;;;;;;;8.60;99.90;;;;;;5045653;28;19929;-40
2021/12/28 13:44:16;;;;;;;;;;;8.60;99.90;;;;;;5025828;28;19925;-39
2021/12/28 13:46:42;;;;;;;;;;;8.60;99.90;;;;;;5032490;28;20329;-38
2021/12/28 13:49:12;;;;;;;;;;;8.60;99.90;;;;;;5018720;28;19925;-37
2021/12/28 13:51:39;;;;;;;;;;;8.60;99.90;;;;;;5018129;28;19971;-37
2021/12/28 13:54:06;;;;;;;;;;;8.60;99.90;;;;;;5035607;28;19925;-38
2021/12/28 13:56:35;;;;;;;;;;;8.60;99.90;;;;;;5018044;28;19925;-39
2021/12/28 13:59:02;;;;;;;;;;;8.60;99.90;;;;;;5017201;28;19971;-39
2021/12/28 14:01:30;;;;;;;;;;;8.60;99.90;;;;;;5017913;28;19929;-38
2021/12/28 14:03:58;;;;;;;;;;;8.60;99.90;;;;;;5035368;28;19925;-38
2021/12/28 14:06:25;;;;;;;;;;;8.60;99.90;;;;;;5018119;28;20036;-38
2021/12/28 14:08:51;;;;;;;;;;;8.60;99.90;;;;;;5035781;28;20332;-40
2021/12/28 14:11:29;;;;;;;;;;;8.60;99.90;;;;;;5035390;28;19926;-39
2021/12/28 14:13:55;;;;;;;;;;;8.60;99.90;;;;;;5051527;28;19925;-39
2021/12/28 14:16:22;;;;;;;;;;;8.60;99.90;;;;;;5034897;28;19943;-37
2021/12/28 14:18:51;;;;;;;;;;;8.70;99.90;;;;;;5017677;28;19932;-39
2021/12/28 14:21:19;;;;;;;;;;;8.70;99.90;;;;;;5034688;28;19964;-38
2021/12/28 14:23:52;;;;;;;;;;;8.70;99.90;;;;;;5034043;28;20019;-39
2021/12/28 14:26:19;;;;;;;;;;;8.70;99.90;;;;;;5050551;28;19975;-38
2021/12/28 14:28:53;;;;;;;;;;;8.50;99.90;;;;;;5017818;28;19925;-39
2021/12/28 14:31:21;;;;;;;;;;;8.50;99.90;;;;;;5033993;28;19925;-39
2021/12/28 14:33:49;;;;;;;;;;;8.50;99.90;;;;;;5009495;28;19929;-39
2021/12/28 14:36:17;;;;;;;;;;;8.40;99.90;;;;;;5050630;28;19925;-38